createdAt,value
2022-09-18T00:01:39.128Z,9.20
2022-09-18T00:04:09.248Z,9.20
2022-09-18T00:06:40.884Z,9.20
2022-09-18T00:09:10.926Z,9.10
2022-09-18T00:11:41.711Z,9.20
2022-09-18T00:14:13.903Z,9.10
2022-09-18T00:16:42.560Z,9.10
2022-09-18T00:19:11.285Z,9.10
2022-09-18T00:21:42.312Z,9.10
2022-09-18T00:24:10.995Z,9.10
2022-09-18T00:26:39.529Z,9.00
2022-09-18T00:29:08.070Z,9.00
2022-09-18T00:31:37.437Z,9.00
2022-09-18T00:34:08.659Z,9.10
2022-09-18T00:36:38.508Z,9.20
2022-09-18T00:39:09.326Z,9.20
2022-09-18T00:41:39.703Z,9.30
2022-09-18T00:44:34.314Z,9.30
2022-09-18T00:47:15.413Z,9.50
2022-09-18T00:49:47.200Z,9.50
2022-09-18T00:52:17.913Z,9.50
2022-09-18T00:54:50.863Z,9.60
2022-09-18T00:57:22.253Z,9.70
2022-09-18T00:59:52.599Z,9.80
2022-09-18T01:02:20.984Z,9.80
2022-09-18T01:04:50.602Z,9.80
2022-09-18T01:07:29.240Z,9.90
2022-09-18T01:10:07.268Z,9.90
2022-09-18T01:12:42.803Z,9.90
2022-09-18T01:15:15.871Z,10.00
2022-09-18T01:17:53.291Z,10.00
2022-09-18T01:20:41.862Z,10.00
2022-09-18T01:23:21.649Z,10.10
2022-09-18T01:26:02.995Z,10.10
2022-09-18T01:28:38.584Z,10.10
2022-09-18T01:31:14.836Z,10.10
2022-09-18T01:33:51.216Z,10.10
2022-09-18T01:36:22.738Z,10.20
2022-09-18T01:38:55.095Z,10.10
2022-09-18T01:41:25.691Z,10.20
2022-09-18T01:43:59.883Z,10.20
2022-09-18T01:46:28.132Z,10.20
2022-09-18T01:49:02.216Z,10.20
2022-09-18T01:51:41.036Z,10.10
2022-09-18T01:54:15.698Z,10.10
2022-09-18T01:56:47.430Z,10.10
2022-09-18T01:59:23.279Z,10.10
2022-09-18T02:01:55.144Z,10.10
2022-09-18T02:04:27.405Z,10.10
2022-09-18T02:07:01.565Z,10.00
2022-09-18T02:09:31.103Z,10.00
2022-09-18T02:12:01.508Z,10.10
2022-09-18T02:14:36.711Z,10.10
2022-09-18T02:17:09.729Z,10.00
2022-09-18T02:19:42.766Z,10.20
2022-09-18T02:22:13.444Z,10.20
2022-09-18T02:24:44.317Z,10.10
2022-09-18T02:27:14.851Z,10.10
2022-09-18T02:29:46.055Z,10.10
2022-09-18T02:32:14.806Z,10.20
2022-09-18T02:34:42.806Z,10.20
2022-09-18T02:37:25.021Z,10.10
2022-09-18T02:40:05.937Z,10.10
2022-09-18T02:42:42.511Z,10.10
2022-09-18T02:45:20.672Z,10.10
2022-09-18T02:48:03.520Z,10.10
2022-09-18T02:50:40.034Z,10.10
2022-09-18T02:53:14.096Z,10.10
2022-09-18T02:55:47.301Z,10.20
2022-09-18T02:58:21.896Z,10.30
2022-09-18T03:00:52.848Z,10.20
2022-09-18T03:03:20.858Z,10.20
2022-09-18T03:05:48.797Z,10.20
2022-09-18T03:08:22.489Z,10.40
2022-09-18T03:10:50.757Z,10.30
2022-09-18T03:13:18.877Z,10.30
2022-09-18T03:15:47.082Z,10.20
2022-09-18T03:18:16.421Z,10.30
2022-09-18T03:20:44.395Z,10.20
2022-09-18T03:23:12.374Z,10.20
2022-09-18T03:25:40.305Z,10.20
2022-09-18T03:28:08.293Z,10.30
2022-09-18T03:30:37.171Z,10.30
2022-09-18T03:33:05.823Z,10.30
2022-09-18T03:35:35.202Z,10.30
2022-09-18T03:38:03.078Z,10.40
2022-09-18T03:40:31.160Z,10.40
2022-09-18T03:42:59.156Z,10.40
2022-09-18T03:45:27.288Z,10.40
2022-09-18T03:47:55.305Z,10.40
2022-09-18T03:50:23.221Z,10.50
2022-09-18T03:52:52.554Z,10.40
2022-09-18T03:55:20.420Z,10.40
2022-09-18T03:57:48.697Z,10.40
2022-09-18T04:00:17.547Z,10.40
2022-09-18T04:02:45.916Z,10.60
2022-09-18T04:05:15.442Z,10.50
2022-09-18T04:07:43.540Z,10.40
2022-09-18T04:10:13.061Z,10.50
2022-09-18T04:12:41.123Z,10.50
2022-09-18T04:15:10.630Z,10.50
2022-09-18T04:17:38.628Z,10.40
2022-09-18T04:20:10.685Z,10.40
2022-09-18T04:22:39.167Z,10.40
2022-09-18T04:25:08.230Z,10.30
2022-09-18T04:27:37.644Z,10.30
2022-09-18T04:30:06.337Z,10.30
2022-09-18T04:32:34.357Z,10.30
2022-09-18T04:35:02.677Z,10.30
2022-09-18T04:37:31.173Z,10.50
2022-09-18T04:39:59.240Z,10.40
2022-09-18T04:42:27.247Z,10.40
2022-09-18T04:44:56.622Z,10.50
2022-09-18T04:47:24.670Z,10.40
2022-09-18T04:49:53.910Z,10.50
2022-09-18T04:52:33.368Z,10.50
2022-09-18T04:55:01.413Z,10.50
2022-09-18T04:57:29.680Z,10.50
2022-09-18T04:59:59.070Z,10.50
2022-09-18T05:02:27.106Z,10.40
2022-09-18T05:04:55.147Z,10.50
2022-09-18T05:07:23.314Z,10.50
2022-09-18T05:09:51.719Z,10.70
2022-09-18T05:12:19.795Z,10.50
2022-09-18T05:14:47.770Z,10.60
2022-09-18T05:17:17.118Z,10.60
2022-09-18T05:19:45.097Z,10.60
2022-09-18T05:22:13.398Z,10.60
2022-09-18T05:24:41.409Z,10.60
2022-09-18T05:27:09.750Z,10.80
2022-09-18T05:29:37.783Z,10.80
2022-09-18T05:32:07.537Z,10.90
2022-09-18T05:34:44.365Z,11.10
2022-09-18T05:37:12.567Z,11.20
2022-09-18T05:39:42.133Z,11.30
2022-09-18T05:42:10.265Z,11.30
2022-09-18T05:44:38.551Z,11.40
2022-09-18T05:49:37.336Z,11.30
2022-09-18T05:52:05.534Z,11.20
2022-09-18T05:54:36.245Z,11.10
2022-09-18T05:57:04.243Z,11.00
2022-09-18T05:59:32.244Z,11.00
2022-09-18T06:02:00.259Z,11.10
2022-09-18T06:04:28.244Z,11.00
2022-09-18T06:06:57.918Z,11.00
2022-09-18T06:09:25.944Z,11.20
2022-09-18T06:11:53.957Z,10.90
2022-09-18T06:14:21.940Z,10.90
2022-09-18T06:16:50.006Z,11.20
2022-09-18T06:19:18.294Z,10.90
2022-09-18T06:21:46.240Z,12.00
2022-09-18T06:24:15.654Z,10.90
2022-09-18T06:26:43.629Z,10.90
2022-09-18T06:29:11.635Z,11.20
2022-09-18T06:31:39.723Z,11.40
2022-09-18T06:34:07.917Z,10.90
2022-09-18T06:36:36.200Z,10.90
2022-09-18T06:39:04.371Z,10.90
2022-09-18T06:41:33.741Z,11.30
2022-09-18T06:44:01.843Z,11.60
2022-09-18T06:46:30.144Z,11.00
2022-09-18T06:48:58.210Z,11.10
2022-09-18T06:51:26.275Z,11.00
2022-09-18T06:53:54.289Z,11.00
2022-09-18T06:56:22.203Z,11.40
2022-09-18T06:58:53.456Z,11.20
2022-09-18T07:01:21.629Z,11.80
2022-09-18T07:03:49.857Z,11.30
2022-09-18T07:06:18.036Z,11.30
2022-09-18T07:08:45.990Z,11.30
2022-09-18T07:11:13.922Z,11.30
2022-09-18T07:13:42.084Z,11.30
2022-09-18T07:16:11.488Z,11.30
2022-09-18T07:18:39.577Z,11.20
2022-09-18T07:21:07.639Z,11.20
2022-09-18T07:23:36.034Z,11.20
2022-09-18T07:26:05.291Z,11.50
2022-09-18T07:28:33.998Z,11.20
2022-09-18T07:31:04.554Z,11.90
2022-09-18T07:33:35.387Z,11.20
2022-09-18T07:36:04.843Z,11.20
2022-09-18T07:38:34.338Z,11.20
2022-09-18T07:41:03.301Z,11.30
2022-09-18T07:43:31.969Z,11.40
2022-09-18T07:46:00.640Z,12.10
2022-09-18T07:48:29.866Z,11.50
2022-09-18T07:50:59.789Z,11.60
2022-09-18T07:53:29.677Z,11.70
2022-09-18T07:55:58.156Z,11.70
2022-09-18T07:58:27.101Z,11.80
2022-09-18T08:00:55.196Z,11.90
2022-09-18T08:03:23.310Z,11.90
2022-09-18T08:05:53.849Z,11.80
2022-09-18T08:08:23.964Z,11.90
2022-09-18T08:10:54.730Z,11.90
2022-09-18T08:13:23.079Z,11.90
2022-09-18T08:15:51.270Z,11.90
2022-09-18T08:18:21.755Z,11.90
2022-09-18T08:20:49.948Z,11.90
2022-09-18T08:23:18.041Z,11.90
2022-09-18T08:25:48.186Z,11.90
2022-09-18T08:28:16.546Z,12.00
2022-09-18T08:30:44.784Z,12.00
2022-09-18T08:33:13.694Z,12.10
2022-09-18T08:35:42.088Z,12.10
2022-09-18T08:38:12.046Z,12.20
2022-09-18T08:40:59.967Z,12.20
2022-09-18T08:43:46.235Z,12.20
2022-09-18T08:46:19.615Z,12.30
2022-09-18T08:48:57.152Z,12.40
2022-09-18T08:51:31.260Z,12.50
2022-09-18T08:54:14.461Z,12.60
2022-09-18T08:56:44.958Z,12.70
2022-09-18T08:59:17.883Z,12.80
2022-09-18T09:01:54.926Z,12.80
2022-09-18T09:04:28.471Z,12.70
2022-09-18T09:07:07.890Z,12.70
2022-09-18T09:09:46.578Z,12.80
2022-09-18T09:12:24.275Z,12.80
2022-09-18T09:15:16.155Z,13.10
2022-09-18T09:17:54.230Z,13.30
2022-09-18T09:20:24.781Z,13.80
2022-09-18T09:23:03.158Z,14.30
2022-09-18T09:25:40.572Z,15.20
2022-09-18T09:28:17.872Z,15.70
2022-09-18T09:30:50.814Z,16.20
2022-09-18T09:33:25.115Z,16.60
2022-09-18T09:35:56.387Z,16.60
2022-09-18T09:38:36.585Z,16.40
2022-09-18T09:41:13.825Z,16.20
2022-09-18T09:43:53.715Z,16.00
2022-09-18T09:46:41.470Z,15.80
2022-09-18T09:49:15.652Z,15.60
2022-09-18T09:51:52.661Z,15.50
2022-09-18T09:54:21.259Z,15.40
2022-09-18T09:56:55.530Z,15.30
2022-09-18T09:59:32.396Z,15.50
2022-09-18T10:02:10.790Z,15.40
2022-09-18T10:04:47.192Z,15.60
2022-09-18T10:07:22.841Z,15.60
2022-09-18T10:09:58.599Z,15.70
2022-09-18T10:12:34.087Z,15.70
2022-09-18T10:15:14.849Z,15.70
2022-09-18T10:17:44.706Z,15.70
2022-09-18T10:20:17.469Z,15.50
2022-09-18T10:22:48.985Z,15.40
2022-09-18T10:25:25.206Z,15.20
2022-09-18T10:27:53.538Z,15.10
2022-09-18T10:30:25.518Z,15.00
2022-09-18T10:32:54.058Z,14.80
2022-09-18T10:35:45.636Z,14.70
2022-09-18T10:38:42.042Z,14.60
2022-09-18T10:41:29.397Z,14.40
2022-09-18T10:44:02.366Z,14.30
2022-09-18T10:46:34.486Z,14.20
2022-09-18T10:49:21.739Z,14.20
2022-09-18T10:51:49.721Z,14.20
2022-09-18T10:54:23.006Z,14.30
2022-09-18T10:56:51.068Z,14.40
2022-09-18T10:59:35.870Z,14.30
2022-09-18T11:02:13.673Z,14.20
2022-09-18T11:04:41.841Z,14.10
2022-09-18T11:07:12.582Z,13.80
2022-09-18T11:09:42.430Z,13.60
2022-09-18T11:12:17.101Z,13.40
2022-09-18T11:14:49.368Z,13.20
2022-09-18T11:17:26.274Z,13.20
2022-09-18T11:19:56.532Z,13.20
2022-09-18T11:22:38.653Z,13.30
2022-09-18T11:25:24.386Z,13.30
2022-09-18T11:27:54.219Z,13.40
2022-09-18T11:30:24.472Z,13.40
2022-09-18T11:33:00.748Z,13.40
2022-09-18T11:35:31.334Z,13.40
2022-09-18T11:38:06.661Z,13.40
2022-09-18T11:40:45.207Z,13.50
2022-09-18T11:43:18.036Z,13.60
2022-09-18T11:45:53.140Z,13.60
2022-09-18T11:48:34.094Z,13.60
2022-09-18T11:51:05.659Z,13.60
2022-09-18T11:53:39.132Z,13.60
2022-09-18T11:56:12.711Z,13.60
2022-09-18T11:58:46.850Z,13.70
2022-09-18T12:01:26.205Z,13.70
2022-09-18T12:04:01.908Z,13.70
2022-09-18T12:06:40.082Z,13.90
2022-09-18T12:09:15.039Z,14.40
2022-09-18T12:11:52.663Z,14.50
2022-09-18T12:14:24.263Z,14.60
2022-09-18T12:17:00.950Z,14.50
2022-09-18T12:19:35.725Z,14.40
2022-09-18T12:22:11.762Z,14.40
2022-09-18T12:24:39.923Z,14.20
2022-09-18T12:27:20.341Z,14.20
2022-09-18T12:30:07.384Z,14.20
2022-09-18T12:33:12.507Z,14.30
2022-09-18T12:35:54.278Z,14.30
2022-09-18T12:38:42.280Z,14.40
2022-09-18T12:41:47.499Z,14.40
2022-09-18T12:44:35.215Z,14.40
2022-09-18T12:47:18.415Z,14.50
2022-09-18T12:50:14.455Z,14.60
2022-09-18T12:53:08.595Z,14.50
2022-09-18T12:56:01.768Z,14.50
2022-09-18T12:58:47.387Z,14.40
2022-09-18T13:01:28.114Z,14.30
2022-09-18T13:04:03.263Z,14.30
2022-09-18T13:06:38.525Z,14.40
2022-09-18T13:09:21.673Z,14.40
2022-09-18T13:11:55.237Z,14.50
2022-09-18T13:14:29.207Z,14.40
2022-09-18T13:17:05.363Z,14.60
2022-09-18T13:19:36.707Z,14.70
2022-09-18T13:22:07.839Z,14.80
2022-09-18T13:24:40.244Z,14.90
2022-09-18T13:27:13.247Z,15.00
2022-09-18T13:29:59.186Z,14.90
2022-09-18T13:32:42.706Z,14.80
2022-09-18T13:35:23.450Z,14.60
2022-09-18T13:38:13.526Z,14.50
2022-09-18T13:40:45.183Z,14.30
2022-09-18T13:43:41.044Z,14.30
2022-09-18T13:46:11.077Z,14.30
2022-09-18T13:48:45.885Z,14.30
2022-09-18T13:51:22.122Z,14.30
2022-09-18T13:54:16.979Z,14.40
2022-09-18T13:57:20.330Z,14.40
2022-09-18T13:59:52.525Z,14.40
2022-09-18T14:02:29.051Z,14.30
2022-09-18T14:04:59.858Z,14.20
2022-09-18T14:08:04.516Z,14.20
2022-09-18T14:10:37.742Z,14.20
2022-09-18T14:13:31.643Z,14.20
2022-09-18T14:16:07.175Z,14.20
2022-09-18T14:18:40.676Z,14.20
2022-09-18T14:21:21.266Z,14.20
2022-09-18T14:24:20.482Z,14.20
2022-09-18T14:27:01.084Z,14.30
2022-09-18T14:29:34.539Z,14.40
2022-09-18T14:32:03.942Z,14.40
2022-09-18T14:34:37.620Z,14.20
2022-09-18T14:37:24.774Z,13.90
2022-09-18T14:39:54.940Z,13.90
2022-09-18T14:42:32.664Z,13.80
2022-09-18T14:45:19.521Z,13.70
2022-09-18T14:47:49.158Z,13.60
2022-09-18T14:50:26.490Z,13.50
2022-09-18T14:52:55.379Z,13.50
2022-09-18T14:55:29.580Z,13.50
2022-09-18T14:57:59.919Z,13.40
2022-09-18T15:00:31.909Z,13.30
2022-09-18T15:03:03.326Z,13.10
2022-09-18T15:05:33.042Z,13.00
2022-09-18T15:08:08.499Z,12.90
2022-09-18T15:10:40.366Z,12.80
2022-09-18T15:13:10.425Z,12.80
2022-09-18T15:15:43.097Z,12.80
2022-09-18T15:18:23.646Z,12.80
2022-09-18T15:20:53.758Z,12.80
2022-09-18T15:23:26.155Z,12.80
2022-09-18T15:25:58.511Z,12.70
2022-09-18T15:28:33.324Z,12.70
2022-09-18T15:31:05.641Z,12.70
2022-09-18T15:33:35.861Z,12.60
2022-09-18T15:36:06.309Z,12.60
2022-09-18T15:38:42.373Z,12.50
2022-09-18T15:41:36.663Z,12.50
2022-09-18T15:44:11.465Z,12.50
2022-09-18T15:46:40.903Z,12.40
2022-09-18T15:49:27.987Z,12.30
2022-09-18T15:51:56.172Z,12.30
2022-09-18T15:54:28.839Z,12.30
2022-09-18T15:56:58.867Z,12.20
2022-09-18T15:59:32.070Z,12.20
2022-09-18T16:02:07.478Z,12.10
2022-09-18T16:04:42.678Z,12.10
2022-09-18T16:07:20.825Z,12.00
2022-09-18T16:09:51.126Z,12.00
2022-09-18T16:12:39.848Z,12.00
2022-09-18T16:15:26.160Z,12.00
2022-09-18T16:18:25.517Z,11.90
2022-09-18T16:21:03.907Z,11.90
2022-09-18T16:23:34.636Z,11.90
2022-09-18T16:26:07.025Z,11.90
2022-09-18T16:28:36.799Z,11.80
2022-09-18T16:31:05.143Z,11.90
2022-09-18T16:33:35.838Z,11.80
2022-09-18T16:36:06.662Z,11.80
2022-09-18T16:38:35.046Z,11.80
2022-09-18T16:41:03.471Z,11.80
2022-09-18T16:43:31.553Z,11.80
2022-09-18T16:45:59.787Z,11.80
2022-09-18T16:48:29.436Z,11.80
2022-09-18T16:50:59.156Z,11.70
2022-09-18T16:53:27.292Z,11.70
2022-09-18T16:55:58.738Z,11.70
2022-09-18T16:58:30.433Z,11.70
2022-09-18T17:00:59.090Z,11.60
2022-09-18T17:03:28.046Z,11.60
2022-09-18T17:05:56.427Z,11.60
2022-09-18T17:08:25.798Z,11.60
2022-09-18T17:10:53.972Z,11.50
2022-09-18T17:13:29.345Z,11.60
2022-09-18T17:16:01.199Z,11.50
2022-09-18T17:18:30.319Z,11.50
2022-09-18T17:21:02.068Z,11.50
2022-09-18T17:23:38.658Z,11.60
2022-09-18T17:26:09.092Z,11.60
2022-09-18T17:28:37.305Z,11.60
2022-09-18T17:31:09.578Z,11.60
2022-09-18T17:33:37.752Z,11.60
2022-09-18T17:36:07.140Z,11.50
2022-09-18T17:38:37.028Z,11.50
2022-09-18T17:41:07.684Z,11.50
2022-09-18T17:43:35.824Z,11.50
2022-09-18T17:46:06.262Z,11.40
2022-09-18T17:48:34.720Z,11.40
2022-09-18T17:51:05.464Z,11.50
2022-09-18T17:53:34.960Z,11.40
2022-09-18T17:56:05.832Z,11.40
2022-09-18T17:58:34.743Z,11.40
2022-09-18T18:01:09.606Z,11.40
2022-09-18T18:03:37.774Z,11.40
2022-09-18T18:06:06.058Z,11.30
2022-09-18T18:08:34.446Z,11.30
2022-09-18T18:11:07.886Z,11.30
2022-09-18T18:13:37.451Z,11.30
2022-09-18T18:16:07.434Z,11.30
2022-09-18T18:18:35.555Z,11.30
2022-09-18T18:21:03.971Z,11.30
2022-09-18T18:23:33.061Z,11.30
2022-09-18T18:26:01.625Z,11.30
2022-09-18T18:28:32.133Z,11.30
2022-09-18T18:31:03.792Z,11.20
2022-09-18T18:33:32.367Z,11.20
2022-09-18T18:36:09.032Z,11.20
2022-09-18T18:38:37.029Z,11.20
2022-09-18T18:41:05.656Z,11.20
2022-09-18T18:43:36.680Z,11.20
2022-09-18T18:46:06.884Z,11.20
2022-09-18T18:48:36.936Z,11.20
2022-09-18T18:51:06.526Z,11.30
2022-09-18T18:53:36.037Z,11.10
2022-09-18T18:56:05.548Z,11.10
2022-09-18T18:58:35.466Z,11.10
2022-09-18T19:01:08.296Z,11.00
2022-09-18T19:03:44.364Z,11.00
2022-09-18T19:06:13.188Z,11.00
2022-09-18T19:08:41.183Z,11.00
2022-09-18T19:11:12.368Z,11.00
2022-09-18T19:13:43.207Z,10.90
2022-09-18T19:16:12.020Z,10.90
2022-09-18T19:18:41.271Z,10.90
2022-09-18T19:21:09.398Z,10.80
2022-09-18T19:23:37.930Z,10.80
2022-09-18T19:26:06.131Z,10.80
2022-09-18T19:28:34.119Z,10.80
2022-09-18T19:31:08.090Z,10.80
2022-09-18T19:33:36.286Z,10.80
2022-09-18T19:36:07.003Z,10.80
2022-09-18T19:38:36.319Z,10.80
2022-09-18T19:41:08.370Z,10.80
2022-09-18T19:43:38.173Z,10.70
2022-09-18T19:46:08.801Z,10.70
2022-09-18T19:48:36.867Z,10.70
2022-09-18T19:51:05.920Z,10.70
2022-09-18T19:53:33.935Z,10.60
2022-09-18T19:56:02.973Z,10.60
2022-09-18T19:58:31.246Z,10.60
2022-09-18T20:01:00.567Z,10.50
2022-09-18T20:03:30.289Z,10.50
2022-09-18T20:06:01.609Z,10.50
2022-09-18T20:08:29.769Z,10.40
2022-09-18T20:10:58.716Z,10.90
2022-09-18T20:13:27.349Z,10.40
2022-09-18T20:16:03.255Z,10.40
2022-09-18T20:18:32.729Z,10.40
2022-09-18T20:21:05.896Z,10.30
2022-09-18T20:23:33.984Z,10.30
2022-09-18T20:26:02.512Z,10.30
2022-09-18T20:28:33.704Z,10.30
2022-09-18T20:31:03.880Z,10.30
2022-09-18T20:33:33.663Z,10.30
2022-09-18T20:36:02.054Z,10.20
2022-09-18T20:38:31.878Z,10.10
2022-09-18T20:41:08.034Z,10.00
2022-09-18T20:43:45.715Z,9.70
2022-09-18T20:46:15.956Z,9.60
2022-09-18T20:48:49.960Z,9.60
2022-09-18T20:51:19.710Z,9.50
2022-09-18T20:53:47.696Z,9.50
2022-09-18T20:56:16.582Z,9.50
2022-09-18T20:58:44.570Z,9.50
2022-09-18T21:01:14.042Z,9.50
2022-09-18T21:03:49.745Z,9.50
2022-09-18T21:06:23.075Z,9.50
2022-09-18T21:08:53.877Z,9.50
2022-09-18T21:11:23.962Z,9.60
2022-09-18T21:13:54.341Z,9.60
2022-09-18T21:16:23.956Z,9.60
2022-09-18T21:18:56.788Z,9.60
2022-09-18T21:21:26.703Z,9.60
2022-09-18T21:23:56.540Z,9.60
2022-09-18T21:26:26.931Z,9.60
2022-09-18T21:28:57.050Z,9.50
2022-09-18T21:31:25.861Z,9.50
2022-09-18T21:33:59.055Z,9.50
2022-09-18T21:36:28.338Z,9.50
2022-09-18T21:38:56.513Z,9.50
2022-09-18T21:41:25.881Z,9.50
2022-09-18T21:43:59.853Z,9.40
2022-09-18T21:46:28.552Z,9.40
2022-09-18T21:48:57.930Z,9.30
2022-09-18T21:51:25.912Z,9.30
2022-09-18T21:53:53.861Z,9.30
2022-09-18T21:56:22.389Z,9.30
2022-09-18T21:58:50.379Z,9.30
2022-09-18T22:01:21.544Z,9.30
2022-09-18T22:03:53.296Z,9.40
2022-09-18T22:06:24.694Z,9.30
2022-09-18T22:08:54.779Z,9.30
2022-09-18T22:11:24.755Z,9.40
2022-09-18T22:13:53.734Z,9.30
2022-09-18T22:16:23.433Z,9.30
2022-09-18T22:18:51.479Z,9.30
2022-09-18T22:21:21.288Z,9.30
2022-09-18T22:23:53.295Z,9.30
2022-09-18T22:26:22.293Z,9.50
2022-09-18T22:31:26.551Z,9.20
2022-09-18T22:37:39.994Z,9.00
2022-09-18T22:40:10.192Z,9.00
2022-09-18T22:42:38.206Z,9.00
2022-09-18T22:45:08.477Z,8.90
2022-09-18T22:47:36.372Z,8.90
2022-09-18T22:50:04.659Z,8.90
2022-09-18T22:52:32.623Z,9.00
2022-09-18T22:55:00.649Z,9.00
2022-09-18T22:57:29.963Z,9.00
2022-09-18T22:59:57.909Z,9.00
2022-09-18T23:02:25.928Z,9.00
2022-09-18T23:04:53.958Z,9.00
2022-09-18T23:07:21.964Z,9.10
2022-09-18T23:09:49.893Z,9.00
2022-09-18T23:12:17.804Z,9.00
2022-09-18T23:14:47.124Z,9.00
2022-09-18T23:17:15.129Z,8.90
2022-09-18T23:19:43.307Z,8.90
2022-09-18T23:22:12.467Z,8.90
2022-09-18T23:24:40.525Z,8.80
2022-09-18T23:27:08.423Z,8.80
2022-09-18T23:29:37.343Z,8.70
2022-09-18T23:32:07.277Z,8.70
2022-09-18T23:34:35.191Z,8.70
2022-09-18T23:37:03.367Z,8.60
2022-09-18T23:39:33.883Z,8.50
2022-09-18T23:42:03.343Z,8.50
2022-09-18T23:44:33.087Z,8.50
2022-09-18T23:47:01.775Z,8.40
2022-09-18T23:49:31.855Z,8.20
2022-09-18T23:52:00.871Z,8.20
2022-09-18T23:54:33.405Z,8.10
2022-09-18T23:57:02.231Z,8.10
2022-09-18T23:59:30.305Z,8.00
